createdAt,value
2022-11-09T00:02:10.341Z,3.62
2022-11-09T00:07:12.169Z,4.18
2022-11-09T00:12:27.674Z,4.07
2022-11-09T00:17:29.138Z,4.57
2022-11-09T00:22:47.622Z,4.50
2022-11-09T00:27:49.337Z,4.82
2022-11-09T00:32:56.525Z,3.92
2022-11-09T00:37:57.447Z,4.80
2022-11-09T00:43:03.400Z,4.60
2022-11-09T00:48:08.203Z,5.07
2022-11-09T00:53:34.592Z,3.93
2022-11-09T00:58:41.461Z,4.05
2022-11-09T01:03:44.777Z,4.60
2022-11-09T01:08:46.862Z,4.37
2022-11-09T01:14:00.426Z,4.50
2022-11-09T01:19:03.150Z,4.87
2022-11-09T01:24:08.892Z,3.67
2022-11-09T01:29:12.876Z,3.53
2022-11-09T01:34:17.134Z,3.15
2022-11-09T01:39:19.607Z,3.15
2022-11-09T01:44:35.147Z,2.93
2022-11-09T01:49:59.415Z,2.70
2022-11-09T01:55:17.711Z,2.53
2022-11-09T02:00:19.141Z,2.22
2022-11-09T02:05:45.843Z,2.10
2022-11-09T02:11:11.932Z,2.67
2022-11-09T02:16:22.460Z,2.33
2022-11-09T02:21:27.654Z,2.50
2022-11-09T02:26:48.577Z,2.03
2022-11-09T02:31:54.921Z,2.05
2022-11-09T02:37:00.210Z,1.92
2022-11-09T02:42:10.759Z,2.03
2022-11-09T02:47:15.037Z,2.60
2022-11-09T02:52:17.609Z,1.75
2022-11-09T02:57:22.520Z,1.83
2022-11-09T03:02:24.026Z,2.20
2022-11-09T03:07:26.016Z,1.80
2022-11-09T03:12:30.073Z,1.62
2022-11-09T03:17:41.616Z,1.85
2022-11-09T03:22:56.733Z,1.80
2022-11-09T03:28:04.402Z,1.80
2022-11-09T03:33:09.289Z,1.70
2022-11-09T03:38:23.285Z,1.83
2022-11-09T03:43:24.776Z,1.83
2022-11-09T03:48:33.419Z,1.90
2022-11-09T03:53:34.386Z,2.10
2022-11-09T03:58:36.937Z,1.90
2022-11-09T04:03:37.953Z,1.80
2022-11-09T04:08:51.108Z,1.77
2022-11-09T04:13:53.268Z,1.87
2022-11-09T04:19:00.579Z,1.98
2022-11-09T04:24:01.534Z,2.28
2022-11-09T04:29:12.088Z,1.80
2022-11-09T04:34:12.916Z,2.00
2022-11-09T04:39:14.093Z,1.92
2022-11-09T04:44:14.860Z,2.40
2022-11-09T04:49:34.104Z,2.40
2022-11-09T04:54:36.109Z,3.05
2022-11-09T04:59:40.158Z,3.10
2022-11-09T05:04:44.680Z,3.53
2022-11-09T05:09:47.794Z,3.47
2022-11-09T05:19:52.543Z,4.00
2022-11-09T05:24:57.212Z,3.47
2022-11-09T05:29:57.935Z,3.58
2022-11-09T05:35:01.871Z,3.53
2022-11-09T05:40:03.368Z,3.12
2022-11-09T05:45:35.498Z,3.53
2022-11-09T05:50:43.341Z,2.40
2022-11-09T05:56:23.590Z,2.20
2022-11-09T06:01:24.467Z,2.20
2022-11-09T06:06:34.214Z,1.70
2022-11-09T06:11:38.382Z,1.80
2022-11-09T06:16:46.052Z,1.80
2022-11-09T06:21:46.775Z,1.50
2022-11-09T06:26:47.825Z,2.28
2022-11-09T06:31:50.576Z,1.80
2022-11-09T06:36:57.706Z,1.92
2022-11-09T06:42:04.004Z,1.17
2022-11-09T06:47:04.912Z,1.30
2022-11-09T06:52:05.732Z,1.48
2022-11-09T06:57:06.717Z,1.58
2022-11-09T07:02:14.179Z,1.33
2022-11-09T07:07:22.327Z,1.50
2022-11-09T07:12:26.050Z,1.12
2022-11-09T07:17:30.807Z,1.30
2022-11-09T07:22:41.299Z,1.65
2022-11-09T07:27:46.341Z,1.87
2022-11-09T07:38:21.555Z,1.50
2022-11-09T07:43:22.604Z,1.58
2022-11-09T07:48:25.543Z,1.45
2022-11-09T07:53:35.382Z,1.73
2022-11-09T07:58:36.251Z,1.42
2022-11-09T08:03:37.520Z,1.62
2022-11-09T08:08:38.511Z,1.40
2022-11-09T08:13:50.551Z,1.90
2022-11-09T08:18:51.565Z,1.60
2022-11-09T08:23:56.952Z,1.48
2022-11-09T08:28:57.937Z,1.40
2022-11-09T08:33:58.656Z,1.65
2022-11-09T08:39:02.465Z,1.40
2022-11-09T08:44:03.291Z,1.40
2022-11-09T08:49:04.070Z,1.52
2022-11-09T08:54:16.745Z,1.80
2022-11-09T08:59:18.145Z,1.77
2022-11-09T09:04:32.596Z,1.70
2022-11-09T09:09:34.092Z,1.55
2022-11-09T09:14:37.961Z,1.40
2022-11-09T09:19:38.773Z,1.70
2022-11-09T09:24:52.454Z,1.40
2022-11-09T09:30:03.347Z,1.33
2022-11-09T09:35:08.019Z,1.60
2022-11-09T09:40:24.537Z,1.27
2022-11-09T09:45:29.031Z,1.50
2022-11-09T09:50:44.888Z,1.73
2022-11-09T09:55:56.648Z,1.27
2022-11-09T10:01:14.674Z,1.55
2022-11-09T10:06:48.370Z,1.80
2022-11-09T10:12:39.388Z,1.50
2022-11-09T10:22:31.192Z,1.37
2022-11-09T10:27:39.805Z,1.90
2022-11-09T10:32:53.196Z,1.25
2022-11-09T10:37:59.427Z,1.20
2022-11-09T10:43:08.093Z,1.55
2022-11-09T10:48:54.298Z,1.20
2022-11-09T10:54:30.456Z,1.50
2022-11-09T11:00:02.751Z,1.37
2022-11-09T11:05:29.130Z,1.95
2022-11-09T11:10:49.200Z,1.37
2022-11-09T11:16:43.091Z,1.17
2022-11-09T11:22:22.588Z,1.17
2022-11-09T11:27:57.840Z,1.00
2022-11-09T11:33:21.952Z,0.90
2022-11-09T11:40:42.832Z,1.08
2022-11-09T11:49:18.825Z,1.23
2022-11-09T11:58:09.696Z,1.62
2022-11-09T12:03:41.746Z,1.02
2022-11-09T12:09:43.659Z,1.20
2022-11-09T12:16:54.757Z,1.67
2022-11-09T12:22:38.960Z,0.95
2022-11-09T12:28:56.448Z,1.02
2022-11-09T12:34:29.028Z,1.67
2022-11-09T12:40:00.762Z,1.00
2022-11-09T12:45:54.016Z,1.17
2022-11-09T12:51:25.813Z,1.12
2022-11-09T12:58:00.909Z,1.17
2022-11-09T13:03:23.914Z,1.55
2022-11-09T13:09:43.881Z,0.97
2022-11-09T13:15:27.310Z,1.20
2022-11-09T13:24:08.089Z,1.63
2022-11-09T13:30:06.611Z,2.33
2022-11-09T13:39:32.215Z,1.92
2022-11-09T13:44:52.633Z,1.15
2022-11-09T13:50:36.276Z,1.20
2022-11-09T13:55:56.194Z,1.20
2022-11-09T14:07:32.209Z,1.40
2022-11-09T14:13:49.421Z,1.37
2022-11-09T14:19:45.997Z,1.35
2022-11-09T14:32:01.951Z,1.85
2022-11-09T14:37:21.925Z,2.05
2022-11-09T14:43:12.066Z,2.62
2022-11-09T14:48:33.084Z,1.95
2022-11-09T14:54:04.673Z,2.83
2022-11-09T14:59:33.573Z,1.70
2022-11-09T15:05:50.491Z,1.20
2022-11-09T15:11:09.979Z,1.15
2022-11-09T15:16:31.128Z,1.60
2022-11-09T15:22:53.136Z,1.20
2022-11-09T15:28:44.647Z,1.20
2022-11-09T15:34:29.705Z,1.30
2022-11-09T15:39:49.835Z,2.55
2022-11-09T15:45:26.621Z,2.42
2022-11-09T15:50:46.393Z,1.90
2022-11-09T15:56:09.090Z,2.25
2022-11-09T16:01:43.992Z,3.50
2022-11-09T16:07:05.574Z,3.40
2022-11-09T16:12:57.378Z,3.15
2022-11-09T16:18:22.891Z,2.37
2022-11-09T16:24:09.996Z,31.52
2022-11-09T16:29:29.648Z,24.60
2022-11-09T16:35:25.500Z,12.82
2022-11-09T16:40:49.255Z,3.75
2022-11-09T16:46:11.863Z,2.70
2022-11-09T16:51:37.656Z,2.20
2022-11-09T16:56:57.370Z,2.12
2022-11-09T17:02:29.663Z,2.92
2022-11-09T17:07:48.770Z,2.83
2022-11-09T17:13:29.075Z,4.18
2022-11-09T17:18:50.728Z,4.30
2022-11-09T17:24:33.007Z,3.28
2022-11-09T17:29:52.546Z,3.80
2022-11-09T17:35:17.691Z,5.45
2022-11-09T17:40:37.149Z,3.92
2022-11-09T17:46:05.281Z,4.47
2022-11-09T17:51:27.420Z,2.58
2022-11-09T17:56:47.018Z,2.85
2022-11-09T18:02:18.287Z,2.33
2022-11-09T18:07:37.628Z,1.95
2022-11-09T18:13:03.858Z,2.92
2022-11-09T18:18:24.618Z,2.92
2022-11-09T18:23:45.753Z,5.28
2022-11-09T18:29:05.253Z,6.70
2022-11-09T18:34:25.075Z,4.82
2022-11-09T18:39:47.783Z,3.60
2022-11-09T18:45:08.916Z,1.60
2022-11-09T18:50:28.825Z,1.87
2022-11-09T18:55:49.452Z,1.37
2022-11-09T19:01:16.874Z,1.50
2022-11-09T19:06:36.813Z,1.30
2022-11-09T19:12:09.016Z,1.40
2022-11-09T19:17:28.051Z,2.47
2022-11-09T19:22:51.417Z,1.90
2022-11-09T19:28:10.530Z,1.65
2022-11-09T19:33:36.573Z,2.12
2022-11-09T19:38:56.137Z,2.35
2022-11-09T19:44:23.288Z,1.70
2022-11-09T19:49:42.697Z,3.70
2022-11-09T19:55:06.117Z,3.87
2022-11-09T20:00:25.401Z,4.37
2022-11-09T20:05:59.459Z,3.20
2022-11-09T20:11:42.062Z,2.00
2022-11-09T20:17:03.581Z,2.72
2022-11-09T20:22:36.604Z,2.05
2022-11-09T20:27:57.045Z,2.65
2022-11-09T20:33:19.684Z,1.92
2022-11-09T20:38:39.816Z,2.42
2022-11-09T20:44:09.995Z,2.37
2022-11-09T20:49:29.369Z,1.85
2022-11-09T20:54:48.839Z,2.30
2022-11-09T21:00:14.393Z,2.83
2022-11-09T21:05:34.029Z,2.40
2022-11-09T21:11:12.957Z,2.33
2022-11-09T21:16:32.190Z,1.70
2022-11-09T21:22:07.153Z,2.30
2022-11-09T21:27:47.986Z,2.12
2022-11-09T21:33:08.058Z,2.10
2022-11-09T21:38:27.343Z,2.53
2022-11-09T21:44:08.537Z,2.65
2022-11-09T21:49:28.098Z,3.15
2022-11-09T21:54:54.088Z,3.20
2022-11-09T22:00:15.123Z,3.20
2022-11-09T22:05:38.302Z,2.97
2022-11-09T22:11:11.313Z,2.15
2022-11-09T22:16:32.825Z,2.57
2022-11-09T22:21:58.658Z,2.90
2022-11-09T22:27:18.206Z,5.28
2022-11-09T22:32:45.309Z,3.50
2022-11-09T22:38:05.091Z,2.90
2022-11-09T22:43:27.148Z,3.47
2022-11-09T22:48:46.922Z,3.40
2022-11-09T22:54:12.011Z,3.00
2022-11-09T22:59:31.243Z,3.85
2022-11-09T23:04:57.719Z,4.95
2022-11-09T23:10:17.335Z,3.83
2022-11-09T23:15:41.077Z,2.05
2022-11-09T23:21:00.964Z,1.92
2022-11-09T23:26:41.659Z,2.08
2022-11-09T23:32:01.245Z,2.20
2022-11-09T23:37:20.637Z,1.95
2022-11-09T23:42:40.616Z,3.20
2022-11-09T23:48:06.473Z,2.40
2022-11-09T23:53:27.543Z,2.20
2022-11-09T23:58:56.954Z,13.65
